createdAt,value
2022-10-25T00:00:54.062Z,2.97
2022-10-25T00:03:21.892Z,3.33
2022-10-25T00:05:50.053Z,2.92
2022-10-25T00:08:17.910Z,3.40
2022-10-25T00:10:45.757Z,3.08
2022-10-25T00:13:13.932Z,3.03
2022-10-25T00:15:41.800Z,2.72
2022-10-25T00:18:11.103Z,2.70
2022-10-25T00:20:39.543Z,2.78
2022-10-25T00:23:07.385Z,3.25
2022-10-25T00:25:35.238Z,2.97
2022-10-25T00:28:03.112Z,1.85
2022-10-25T00:30:30.981Z,2.40
2022-10-25T00:32:58.911Z,2.22
2022-10-25T00:35:28.329Z,2.22
2022-10-25T00:37:56.175Z,2.05
2022-10-25T00:40:24.029Z,2.08
2022-10-25T00:42:52.001Z,2.20
2022-10-25T00:45:26.946Z,1.67
2022-10-25T00:47:59.355Z,2.03
2022-10-25T00:50:37.150Z,2.28
2022-10-25T00:53:12.699Z,1.75
2022-10-25T00:55:45.514Z,2.05
2022-10-25T00:58:17.482Z,1.60
2022-10-25T01:00:47.001Z,1.70
2022-10-25T01:03:16.002Z,1.57
2022-10-25T01:05:46.050Z,1.70
2022-10-25T01:08:14.971Z,1.98
2022-10-25T01:10:42.942Z,1.80
2022-10-25T01:13:10.970Z,1.40
2022-10-25T01:15:47.667Z,1.50
2022-10-25T01:18:19.680Z,1.90
2022-10-25T01:21:38.955Z,1.80
2022-10-25T01:24:35.770Z,1.40
2022-10-25T01:27:16.792Z,2.05
2022-10-25T01:30:10.002Z,1.60
2022-10-25T01:32:49.558Z,1.40
2022-10-25T01:35:28.687Z,1.60
2022-10-25T01:38:29.151Z,1.58
2022-10-25T01:41:08.401Z,1.30
2022-10-25T01:43:46.496Z,1.50
2022-10-25T01:46:23.632Z,1.60
2022-10-25T01:48:59.324Z,1.60
2022-10-25T01:51:28.536Z,1.40
2022-10-25T01:53:56.403Z,1.38
2022-10-25T01:56:29.061Z,1.15
2022-10-25T01:59:24.855Z,1.10
2022-10-25T02:02:05.271Z,0.93
2022-10-25T02:04:44.966Z,1.00
2022-10-25T02:07:19.535Z,1.10
2022-10-25T02:09:57.042Z,1.02
2022-10-25T02:12:31.746Z,1.20
2022-10-25T02:15:09.899Z,1.30
2022-10-25T02:17:42.032Z,1.40
2022-10-25T02:20:14.755Z,1.30
2022-10-25T02:22:42.900Z,1.40
2022-10-25T02:25:13.765Z,1.23
2022-10-25T02:27:42.511Z,1.67
2022-10-25T02:30:13.553Z,1.75
2022-10-25T02:32:43.740Z,1.60
2022-10-25T02:35:16.197Z,1.90
2022-10-25T02:37:44.618Z,1.70
2022-10-25T02:40:13.542Z,1.50
2022-10-25T02:42:41.413Z,1.30
2022-10-25T02:45:10.548Z,1.60
2022-10-25T02:47:38.535Z,1.75
2022-10-25T02:50:07.416Z,1.85
2022-10-25T02:52:36.723Z,2.25
2022-10-25T02:55:04.905Z,2.20
2022-10-25T02:57:34.710Z,1.92
2022-10-25T03:00:03.043Z,2.00
2022-10-25T03:02:30.960Z,1.60
2022-10-25T03:04:58.806Z,1.90
2022-10-25T03:07:26.668Z,2.20
2022-10-25T03:09:55.898Z,1.90
2022-10-25T03:12:23.727Z,2.42
2022-10-25T03:14:51.568Z,1.92
2022-10-25T03:17:19.411Z,1.95
2022-10-25T03:19:47.343Z,1.95
2022-10-25T03:22:15.183Z,2.10
2022-10-25T03:24:43.160Z,2.17
2022-10-25T03:27:12.793Z,2.00
2022-10-25T03:29:41.010Z,2.25
2022-10-25T03:32:08.882Z,2.60
2022-10-25T03:34:36.736Z,2.58
2022-10-25T03:37:04.593Z,2.30
2022-10-25T03:39:32.480Z,2.80
2022-10-25T03:42:00.334Z,2.65
2022-10-25T03:44:29.637Z,2.60
2022-10-25T03:46:57.574Z,2.67
2022-10-25T03:49:26.212Z,2.33
2022-10-25T03:51:58.893Z,2.70
2022-10-25T03:54:29.569Z,2.60
2022-10-25T03:57:01.156Z,2.33
2022-10-25T03:59:33.614Z,2.20
2022-10-25T04:02:02.093Z,2.05
2022-10-25T04:04:32.999Z,2.00
2022-10-25T04:07:04.569Z,2.08
2022-10-25T04:09:32.477Z,2.17
2022-10-25T04:12:00.624Z,2.38
2022-10-25T04:14:28.666Z,1.83
2022-10-25T04:16:57.961Z,2.05
2022-10-25T04:19:25.959Z,1.75
2022-10-25T04:21:53.902Z,1.80
2022-10-25T04:24:22.733Z,1.92
2022-10-25T04:26:50.649Z,2.33
2022-10-25T04:29:18.576Z,1.83
2022-10-25T04:31:46.415Z,2.25
2022-10-25T04:34:15.770Z,1.70
2022-10-25T04:36:43.891Z,2.25
2022-10-25T04:39:12.028Z,2.17
2022-10-25T04:41:40.364Z,2.83
2022-10-25T04:44:08.208Z,3.42
2022-10-25T04:46:36.130Z,3.78
2022-10-25T04:49:04.032Z,3.58
2022-10-25T04:51:34.371Z,4.20
2022-10-25T04:54:02.248Z,4.50
2022-10-25T04:56:30.467Z,4.30
2022-10-25T04:58:59.786Z,4.97
2022-10-25T05:01:27.846Z,4.43
2022-10-25T05:03:55.769Z,5.43
2022-10-25T05:06:26.559Z,6.75
2022-10-25T05:08:56.570Z,6.32
2022-10-25T05:11:26.143Z,8.15
2022-10-25T05:13:54.170Z,7.90
2022-10-25T05:16:24.958Z,9.02
2022-10-25T05:18:54.502Z,6.03
2022-10-25T05:21:23.162Z,6.30
2022-10-25T05:23:51.013Z,6.40
2022-10-25T05:26:22.091Z,9.32
2022-10-25T05:28:52.776Z,8.38
2022-10-25T05:31:22.833Z,9.82
2022-10-25T05:33:52.322Z,9.52
2022-10-25T05:36:20.663Z,11.77
2022-10-25T05:38:48.610Z,8.95
2022-10-25T05:41:18.459Z,9.48
2022-10-25T05:43:48.386Z,7.88
2022-10-25T05:46:17.769Z,8.55
2022-10-25T05:48:48.938Z,11.77
2022-10-25T05:51:33.408Z,9.77
2022-10-25T05:54:04.476Z,9.32
2022-10-25T05:56:34.311Z,12.00
2022-10-25T05:59:07.649Z,8.35
2022-10-25T06:01:36.725Z,12.55
2022-10-25T06:04:04.933Z,13.52
2022-10-25T06:06:33.252Z,9.00
2022-10-25T06:09:02.272Z,10.60
2022-10-25T06:11:31.039Z,13.25
2022-10-25T06:13:59.265Z,15.30
2022-10-25T06:16:28.711Z,20.30
2022-10-25T06:18:56.755Z,21.13
2022-10-25T06:21:26.415Z,18.35
2022-10-25T06:23:55.266Z,21.98
2022-10-25T06:26:24.816Z,20.33
2022-10-25T06:28:54.552Z,24.10
2022-10-25T06:31:25.763Z,25.67
2022-10-25T06:33:55.028Z,27.30
2022-10-25T06:36:27.368Z,20.92
2022-10-25T06:38:55.675Z,26.38
2022-10-25T06:41:28.526Z,31.80
2022-10-25T06:43:56.831Z,35.95
2022-10-25T06:46:26.393Z,30.60
2022-10-25T06:48:57.832Z,32.43
2022-10-25T06:51:28.641Z,32.85
2022-10-25T06:53:57.570Z,33.83
2022-10-25T06:56:26.375Z,31.05
2022-10-25T06:58:54.360Z,32.75
2022-10-25T07:01:23.789Z,33.83
2022-10-25T07:03:53.670Z,35.10
2022-10-25T07:06:27.426Z,33.17
2022-10-25T07:09:00.269Z,33.75
2022-10-25T07:11:30.032Z,35.42
2022-10-25T07:13:59.653Z,33.00
2022-10-25T07:16:28.989Z,31.55
2022-10-25T07:18:59.856Z,34.53
2022-10-25T07:21:30.411Z,33.05
2022-10-25T07:23:59.051Z,34.88
2022-10-25T07:26:28.706Z,37.42
2022-10-25T07:28:58.056Z,40.65
2022-10-25T07:31:28.543Z,31.92
2022-10-25T07:36:26.486Z,34.70
2022-10-25T07:38:57.166Z,33.58
2022-10-25T07:41:25.560Z,34.20
2022-10-25T07:43:53.597Z,33.78
2022-10-25T07:46:21.437Z,33.30
2022-10-25T07:48:49.319Z,32.45
2022-10-25T07:51:18.715Z,31.45
2022-10-25T07:53:46.596Z,34.03
2022-10-25T07:56:22.182Z,31.25
2022-10-25T07:58:52.222Z,31.13
2022-10-25T08:01:22.649Z,29.67
2022-10-25T08:06:18.614Z,30.88
2022-10-25T08:08:46.638Z,31.40
2022-10-25T08:11:16.364Z,29.60
2022-10-25T08:13:44.291Z,31.60
2022-10-25T08:16:12.143Z,29.73
2022-10-25T08:18:39.977Z,31.77
2022-10-25T08:21:07.852Z,31.60
2022-10-25T08:23:35.762Z,32.83
2022-10-25T08:26:04.196Z,29.27
2022-10-25T08:28:33.464Z,31.02
2022-10-25T08:31:02.158Z,30.42
2022-10-25T08:33:30.635Z,30.48
2022-10-25T08:36:01.590Z,28.92
2022-10-25T08:38:29.576Z,29.25
2022-10-25T08:41:04.591Z,28.73
2022-10-25T08:43:54.687Z,27.60
2022-10-25T08:46:27.668Z,31.58
2022-10-25T08:49:14.674Z,26.98
2022-10-25T08:51:46.909Z,29.75
2022-10-25T08:54:28.483Z,29.15
2022-10-25T08:57:21.958Z,27.40
2022-10-25T08:59:53.564Z,25.88
2022-10-25T09:02:29.826Z,24.92
2022-10-25T09:04:57.959Z,26.15
2022-10-25T09:07:46.436Z,27.60
2022-10-25T09:10:25.156Z,26.20
2022-10-25T09:13:01.027Z,26.05
2022-10-25T09:15:43.707Z,23.77
2022-10-25T09:18:17.819Z,24.90
2022-10-25T09:20:50.859Z,26.95
2022-10-25T09:23:29.842Z,28.20
2022-10-25T09:26:05.167Z,24.48
2022-10-25T09:28:50.823Z,28.08
2022-10-25T09:31:24.245Z,27.02
2022-10-25T09:34:01.484Z,25.92
2022-10-25T09:36:38.303Z,26.80
2022-10-25T09:39:15.800Z,27.83
2022-10-25T09:41:46.899Z,25.83
2022-10-25T09:44:20.983Z,26.13
2022-10-25T09:46:55.753Z,27.27
2022-10-25T09:49:34.153Z,26.65
2022-10-25T09:52:14.108Z,27.25
2022-10-25T09:54:47.412Z,26.70
2022-10-25T09:57:15.528Z,25.95
2022-10-25T09:59:44.197Z,25.90
2022-10-25T10:02:20.716Z,22.02
2022-10-25T10:04:48.910Z,21.58
2022-10-25T10:07:20.903Z,22.55
2022-10-25T10:09:50.885Z,18.35
2022-10-25T10:12:25.101Z,18.75
2022-10-25T10:14:59.899Z,20.70
2022-10-25T10:17:31.405Z,20.55
2022-10-25T10:20:15.184Z,20.42
2022-10-25T10:25:33.966Z,17.23
2022-10-25T10:28:01.962Z,16.07
2022-10-25T10:30:31.759Z,15.50
2022-10-25T10:33:02.855Z,16.52
2022-10-25T10:35:33.363Z,14.57
2022-10-25T10:40:45.645Z,16.75
2022-10-25T10:43:30.749Z,17.58
2022-10-25T10:46:03.910Z,17.42
2022-10-25T10:48:43.301Z,15.98
2022-10-25T10:51:39.017Z,17.38
2022-10-25T10:54:14.738Z,16.70
2022-10-25T10:56:42.590Z,15.43
2022-10-25T10:59:27.570Z,17.38
2022-10-25T11:01:56.557Z,16.90
2022-10-25T11:04:26.370Z,14.35
2022-10-25T11:06:54.318Z,15.18
2022-10-25T11:09:25.543Z,14.93
2022-10-25T11:12:07.730Z,13.60
2022-10-25T11:14:38.386Z,12.77
2022-10-25T11:17:10.464Z,13.35
2022-10-25T11:19:55.932Z,12.45
2022-10-25T11:22:44.289Z,14.25
2022-10-25T11:25:23.531Z,13.20
2022-10-25T11:28:02.819Z,13.80
2022-10-25T11:30:39.247Z,13.05
2022-10-25T11:33:38.627Z,12.60
2022-10-25T11:36:22.804Z,10.38
2022-10-25T11:39:02.282Z,10.93
2022-10-25T11:41:44.743Z,9.20
2022-10-25T11:44:41.745Z,10.20
2022-10-25T11:47:25.536Z,11.73
2022-10-25T11:50:04.649Z,9.60
2022-10-25T11:52:57.367Z,11.70
2022-10-25T11:55:36.088Z,9.25
2022-10-25T11:58:19.344Z,9.75
2022-10-25T12:00:58.474Z,9.95
2022-10-25T12:03:43.815Z,7.90
2022-10-25T12:06:19.075Z,9.73
2022-10-25T12:08:59.995Z,8.20
2022-10-25T12:11:32.162Z,7.97
2022-10-25T12:14:02.247Z,8.90
2022-10-25T12:16:31.673Z,7.43
2022-10-25T12:19:09.119Z,8.18
2022-10-25T12:21:43.886Z,9.40
2022-10-25T12:24:21.016Z,8.38
2022-10-25T12:26:51.369Z,7.32
2022-10-25T12:29:22.170Z,7.65
2022-10-25T12:31:57.979Z,6.78
2022-10-25T12:34:34.006Z,7.68
2022-10-25T12:37:06.154Z,7.25
2022-10-25T12:39:40.830Z,8.43
2022-10-25T12:42:17.039Z,7.53
2022-10-25T12:45:09.585Z,7.10
2022-10-25T12:47:52.450Z,6.50
2022-10-25T12:50:57.863Z,6.25
2022-10-25T12:53:57.542Z,5.75
2022-10-25T12:56:39.892Z,5.10
2022-10-25T12:59:13.791Z,5.80
2022-10-25T13:01:59.954Z,5.72
2022-10-25T13:04:48.823Z,5.75
2022-10-25T13:07:18.475Z,5.60
2022-10-25T13:09:46.774Z,7.10
2022-10-25T13:12:30.590Z,5.13
2022-10-25T13:15:01.043Z,5.85
2022-10-25T13:18:02.840Z,6.13
2022-10-25T13:20:48.370Z,5.15
2022-10-25T13:24:02.981Z,5.30
2022-10-25T13:26:50.407Z,5.82
2022-10-25T13:29:48.853Z,5.07
2022-10-25T13:32:19.815Z,5.50
2022-10-25T13:34:48.212Z,5.45
2022-10-25T13:37:40.348Z,5.70
2022-10-25T13:40:21.375Z,4.93
2022-10-25T13:42:58.323Z,5.65
2022-10-25T13:45:35.357Z,5.35
2022-10-25T13:48:28.260Z,5.28
2022-10-25T13:50:58.164Z,6.20
2022-10-25T13:53:27.804Z,5.28
2022-10-25T13:56:01.214Z,5.18
2022-10-25T13:58:48.671Z,5.15
2022-10-25T14:01:56.902Z,5.57
2022-10-25T14:04:41.681Z,5.40
2022-10-25T14:07:47.862Z,6.10
2022-10-25T14:10:24.301Z,5.85
2022-10-25T14:12:54.639Z,5.68
2022-10-25T14:15:36.484Z,5.70
2022-10-25T14:18:12.546Z,5.80
2022-10-25T14:20:45.490Z,5.68
2022-10-25T14:23:17.227Z,5.15
2022-10-25T14:25:52.411Z,5.57
2022-10-25T14:28:24.391Z,5.93
2022-10-25T14:30:55.466Z,5.10
2022-10-25T14:33:26.898Z,5.30
2022-10-25T14:35:58.605Z,5.45
2022-10-25T14:38:28.472Z,5.90
2022-10-25T14:40:57.841Z,5.38
2022-10-25T14:43:31.779Z,5.53
2022-10-25T14:46:12.167Z,4.97
2022-10-25T14:48:40.303Z,5.82
2022-10-25T14:51:14.827Z,5.32
2022-10-25T14:53:52.304Z,5.53
2022-10-25T14:56:27.436Z,5.47
2022-10-25T14:58:56.439Z,6.43
2022-10-25T15:01:24.841Z,6.35
2022-10-25T15:03:55.827Z,6.28
2022-10-25T15:06:28.459Z,6.22
2022-10-25T15:09:16.201Z,6.53
2022-10-25T15:12:04.810Z,5.20
2022-10-25T15:14:32.720Z,5.57
2022-10-25T15:17:04.324Z,6.07
2022-10-25T15:19:32.290Z,6.22
2022-10-25T15:22:10.806Z,6.60
2022-10-25T15:24:49.027Z,5.72
2022-10-25T15:27:28.139Z,5.97
2022-10-25T15:29:56.216Z,6.18
2022-10-25T15:32:26.463Z,5.97
2022-10-25T15:34:56.626Z,5.97
2022-10-25T15:37:27.967Z,7.18
2022-10-25T15:39:57.593Z,6.78
2022-10-25T15:42:27.707Z,7.47
2022-10-25T15:44:55.643Z,6.95
2022-10-25T15:47:32.992Z,7.32
2022-10-25T15:50:03.044Z,6.22
2022-10-25T15:52:32.420Z,6.72
2022-10-25T15:55:00.321Z,7.28
2022-10-25T15:57:28.452Z,7.05
2022-10-25T15:59:56.337Z,8.88
2022-10-25T16:02:27.176Z,6.95
2022-10-25T16:04:55.388Z,6.35
2022-10-25T16:07:23.524Z,6.88
2022-10-25T16:09:55.043Z,6.88
2022-10-25T16:12:33.732Z,7.72
2022-10-25T16:15:06.056Z,7.28
2022-10-25T16:17:33.980Z,7.65
2022-10-25T16:20:01.884Z,8.50
2022-10-25T16:22:29.801Z,8.18
2022-10-25T16:24:59.064Z,7.75
2022-10-25T16:27:30.019Z,8.25
2022-10-25T16:29:58.041Z,7.78
2022-10-25T16:32:26.023Z,7.30
2022-10-25T16:34:53.929Z,7.35
2022-10-25T16:37:21.923Z,7.60
2022-10-25T16:39:49.853Z,7.05
2022-10-25T16:42:35.629Z,7.57
2022-10-25T16:45:07.194Z,7.18
2022-10-25T16:47:35.201Z,7.72
2022-10-25T16:50:03.207Z,7.78
2022-10-25T16:52:33.841Z,7.97
2022-10-25T16:55:05.810Z,8.50
2022-10-25T16:57:35.117Z,8.50
2022-10-25T17:00:03.818Z,8.25
2022-10-25T17:02:34.156Z,8.55
2022-10-25T17:05:02.029Z,8.75
2022-10-25T17:07:30.187Z,9.30
2022-10-25T17:09:58.032Z,8.68
2022-10-25T17:12:26.195Z,7.75
2022-10-25T17:14:55.492Z,7.68
2022-10-25T17:19:51.273Z,6.93
2022-10-25T17:22:20.591Z,6.45
2022-10-25T17:24:48.792Z,6.32
2022-10-25T17:27:16.675Z,6.72
2022-10-25T17:29:44.597Z,7.20
2022-10-25T17:32:13.878Z,6.78
2022-10-25T17:34:41.715Z,7.00
2022-10-25T17:37:10.866Z,7.00
2022-10-25T17:39:38.859Z,5.57
2022-10-25T17:42:06.915Z,6.00
2022-10-25T17:44:34.816Z,5.00
2022-10-25T17:47:03.280Z,5.60
2022-10-25T17:49:32.755Z,5.40
2022-10-25T17:52:00.654Z,4.78
2022-10-25T17:54:28.576Z,5.05
2022-10-25T17:56:58.669Z,4.72
2022-10-25T17:59:27.905Z,5.65
2022-10-25T18:01:56.077Z,5.03
2022-10-25T18:04:24.662Z,5.55
2022-10-25T18:06:54.072Z,5.07
2022-10-25T18:09:21.953Z,5.57
2022-10-25T18:11:50.039Z,4.82
2022-10-25T18:14:17.994Z,4.10
2022-10-25T18:16:48.952Z,3.88
2022-10-25T18:19:19.862Z,3.88
2022-10-25T18:21:47.694Z,3.63
2022-10-25T18:24:17.141Z,4.10
2022-10-25T18:26:45.041Z,2.92
2022-10-25T18:29:13.264Z,3.35
2022-10-25T18:31:41.120Z,2.80
2022-10-25T18:34:09.018Z,1.70
2022-10-25T18:36:37.088Z,1.33
2022-10-25T18:39:05.315Z,0.82
2022-10-25T18:41:36.002Z,0.80
2022-10-25T18:44:04.155Z,0.82
2022-10-25T18:46:32.820Z,0.82
2022-10-25T18:49:01.023Z,1.25
2022-10-25T18:51:30.021Z,1.38
2022-10-25T18:53:59.126Z,1.30
2022-10-25T18:56:27.619Z,1.35
2022-10-25T18:58:58.963Z,1.50
2022-10-25T19:01:32.967Z,1.45
2022-10-25T19:04:02.158Z,0.93
2022-10-25T19:06:30.620Z,0.98
2022-10-25T19:08:58.761Z,0.95
2022-10-25T19:11:26.698Z,0.90
2022-10-25T19:13:57.264Z,0.85
2022-10-25T19:16:25.371Z,0.82
2022-10-25T19:18:53.528Z,0.73
2022-10-25T19:21:21.638Z,0.75
2022-10-25T19:23:49.883Z,0.85
2022-10-25T19:26:19.532Z,0.70
2022-10-25T19:28:48.007Z,0.95
2022-10-25T19:31:18.978Z,0.60
2022-10-25T19:33:48.401Z,0.60
2022-10-25T19:36:16.794Z,0.90
2022-10-25T19:38:46.135Z,0.70
2022-10-25T19:41:17.333Z,0.63
2022-10-25T19:43:45.710Z,0.60
2022-10-25T19:46:14.507Z,0.60
2022-10-25T19:48:44.195Z,0.70
2022-10-25T19:51:14.169Z,0.77
2022-10-25T19:53:42.284Z,1.08
2022-10-25T19:56:12.355Z,1.00
2022-10-25T19:58:40.640Z,1.13
2022-10-25T20:01:10.620Z,0.95
2022-10-25T20:03:39.815Z,1.38
2022-10-25T20:06:11.216Z,1.08
2022-10-25T20:08:41.411Z,1.08
2022-10-25T20:11:11.311Z,1.20
2022-10-25T20:13:39.490Z,1.50
2022-10-25T20:16:08.512Z,1.42
2022-10-25T20:18:38.536Z,1.45
2022-10-25T20:21:11.304Z,1.63
2022-10-25T20:23:40.559Z,1.33
2022-10-25T20:26:13.407Z,1.40
2022-10-25T20:28:41.662Z,1.40
2022-10-25T20:31:10.151Z,1.50
2022-10-25T20:33:38.536Z,2.13
2022-10-25T20:36:09.015Z,1.73
2022-10-25T20:41:08.924Z,2.03
2022-10-25T20:43:37.920Z,2.00
2022-10-25T20:46:09.802Z,2.25
2022-10-25T20:48:37.711Z,2.17
2022-10-25T20:51:07.829Z,2.17
2022-10-25T20:56:06.532Z,2.17
2022-10-25T20:58:35.673Z,2.00
2022-10-25T21:01:03.934Z,2.83
2022-10-25T21:03:33.413Z,2.28
2022-10-25T21:06:03.608Z,2.33
2022-10-25T21:08:31.869Z,2.67
2022-10-25T21:11:01.267Z,3.15
2022-10-25T21:13:32.627Z,3.67
2022-10-25T21:16:05.443Z,3.33
2022-10-25T21:18:33.354Z,3.42
2022-10-25T21:21:02.773Z,3.30
2022-10-25T21:23:31.177Z,3.28
2022-10-25T21:25:59.768Z,3.30
2022-10-25T21:28:27.817Z,3.40
2022-10-25T21:31:02.013Z,3.10
2022-10-25T21:33:30.227Z,3.08
2022-10-25T21:36:03.733Z,3.00
2022-10-25T21:38:31.913Z,2.70
2022-10-25T21:41:07.465Z,3.05
2022-10-25T21:43:35.984Z,2.60
2022-10-25T21:46:07.723Z,2.60
2022-10-25T21:48:36.515Z,2.20
2022-10-25T21:51:05.138Z,2.00
2022-10-25T21:53:33.419Z,2.53
2022-10-25T21:56:06.659Z,2.45
2022-10-25T21:58:34.615Z,2.50
2022-10-25T22:01:02.611Z,2.83
2022-10-25T22:03:32.436Z,2.47
2022-10-25T22:06:00.310Z,2.10
2022-10-25T22:08:28.322Z,2.33
2022-10-25T22:13:33.431Z,1.90
2022-10-25T22:16:03.367Z,2.72
2022-10-25T22:18:33.448Z,2.45
2022-10-25T22:21:03.612Z,2.13
2022-10-25T22:23:32.839Z,2.05
2022-10-25T22:26:02.887Z,2.63
2022-10-25T22:28:32.546Z,2.75
2022-10-25T22:31:06.182Z,2.40
2022-10-25T22:33:36.529Z,2.47
2022-10-25T22:36:06.108Z,3.03
2022-10-25T22:38:34.721Z,2.37
2022-10-25T22:41:04.442Z,3.10
2022-10-25T22:43:34.795Z,2.90
2022-10-25T22:46:03.534Z,3.28
2022-10-25T22:48:32.093Z,3.03
2022-10-25T22:51:04.995Z,2.95
2022-10-25T22:53:33.307Z,2.70
2022-10-25T22:56:06.515Z,3.40
2022-10-25T22:58:35.880Z,3.90
2022-10-25T23:01:08.332Z,3.28
2022-10-25T23:03:37.318Z,3.90
2022-10-25T23:06:10.495Z,3.08
2022-10-25T23:08:38.458Z,3.30
2022-10-25T23:11:09.172Z,2.50
2022-10-25T23:13:39.164Z,2.85
2022-10-25T23:16:08.345Z,2.55
2022-10-25T23:18:36.694Z,2.58
2022-10-25T23:21:09.984Z,2.80
2022-10-25T23:23:39.704Z,2.40
2022-10-25T23:26:08.736Z,2.03
2022-10-25T23:28:36.712Z,2.40
2022-10-25T23:31:08.735Z,2.30
2022-10-25T23:33:36.837Z,2.13
2022-10-25T23:36:08.742Z,1.73
2022-10-25T23:38:36.844Z,1.60
2022-10-25T23:41:05.434Z,1.30
2022-10-25T23:43:34.002Z,1.27
2022-10-25T23:46:02.571Z,1.20
2022-10-25T23:48:30.932Z,1.38
2022-10-25T23:53:34.610Z,1.55
2022-10-25T23:56:03.321Z,1.33
2022-10-25T23:58:31.701Z,1.60
